sensor_id;sensor_type;location;lat;lon;timestamp;P1;durP1;ratioP1;P2;durP2;ratioP2
71963;SDS011;59834;52.124;5.422;2022-12-07T01:12:51;4.80;;;0.60;;
71963;SDS011;59834;52.124;5.422;2022-12-07T01:15:18;3.53;;;0.55;;
71963;SDS011;59834;52.124;5.422;2022-12-07T01:17:45;4.68;;;0.93;;
71963;SDS011;59834;52.124;5.422;2022-12-07T01:20:11;4.00;;;0.70;;
71963;SDS011;59834;52.124;5.422;2022-12-07T01:22:39;3.67;;;0.63;;
71963;SDS011;59834;52.124;5.422;2022-12-07T01:25:07;3.00;;;0.80;;
71963;SDS011;59834;52.124;5.422;2022-12-07T01:27:35;6.78;;;0.52;;
71963;SDS011;59834;52.124;5.422;2022-12-07T01:30:03;5.07;;;1.98;;
71963;SDS011;59834;52.124;5.422;2022-12-07T01:32:35;6.07;;;1.17;;
71963;SDS011;59834;52.124;5.422;2022-12-07T01:35:02;4.60;;;0.77;;
71963;SDS011;59834;52.124;5.422;2022-12-07T01:37:33;2.95;;;0.40;;
71963;SDS011;59834;52.124;5.422;2022-12-07T01:40:04;8.68;;;0.68;;
71963;SDS011;59834;52.124;5.422;2022-12-07T01:42:32;2.60;;;0.30;;
71963;SDS011;59834;52.124;5.422;2022-12-07T01:47:51;2.10;;;0.20;;
71963;SDS011;59834;52.124;5.422;2022-12-07T01:50:21;4.75;;;0.30;;
71963;SDS011;59834;52.124;5.422;2022-12-07T01:52:52;2.50;;;0.30;;
71963;SDS011;59834;52.124;5.422;2022-12-07T01:55:21;3.75;;;0.22;;
71963;SDS011;59834;52.124;5.422;2022-12-07T01:57:49;4.45;;;0.85;;
71963;SDS011;59834;52.124;5.422;2022-12-07T02:00:20;5.43;;;0.33;;
71963;SDS011;59834;52.124;5.422;2022-12-07T02:02:52;3.33;;;0.20;;
71963;SDS011;59834;52.124;5.422;2022-12-07T02:05:22;2.35;;;0.40;;
71963;SDS011;59834;52.124;5.422;2022-12-07T02:07:51;3.42;;;0.60;;
71963;SDS011;59834;52.124;5.422;2022-12-07T02:10:22;4.80;;;0.25;;
71963;SDS011;59834;52.124;5.422;2022-12-07T02:21:28;2.50;;;0.50;;
71963;SDS011;59834;52.124;5.422;2022-12-07T02:24:14;1.05;;;0.20;;
71963;SDS011;59834;52.124;5.422;2022-12-07T02:29:47;7.20;;;0.50;;
71963;SDS011;59834;52.124;5.422;2022-12-07T02:32:24;5.38;;;0.40;;
71963;SDS011;59834;52.124;5.422;2022-12-07T02:35:01;4.65;;;0.40;;
71963;SDS011;59834;52.124;5.422;2022-12-07T02:40:12;3.57;;;0.20;;
71963;SDS011;59834;52.124;5.422;2022-12-07T02:42:52;2.60;;;0.20;;
71963;SDS011;59834;52.124;5.422;2022-12-07T02:45:25;3.13;;;0.22;;
71963;SDS011;59834;52.124;5.422;2022-12-07T02:47:54;2.72;;;0.40;;
71963;SDS011;59834;52.124;5.422;2022-12-07T02:50:25;5.15;;;0.43;;
71963;SDS011;59834;52.124;5.422;2022-12-07T02:52:53;7.27;;;0.40;;
71963;SDS011;59834;52.124;5.422;2022-12-07T02:55:20;1.90;;;0.25;;
71963;SDS011;59834;52.124;5.422;2022-12-07T03:00:26;4.60;;;0.30;;
71963;SDS011;59834;52.124;5.422;2022-12-07T03:02:55;2.60;;;0.30;;
71963;SDS011;59834;52.124;5.422;2022-12-07T03:16:57;3.53;;;0.40;;
71963;SDS011;59834;52.124;5.422;2022-12-07T03:19:26;2.80;;;0.27;;
71963;SDS011;59834;52.124;5.422;2022-12-07T03:22:01;5.60;;;0.20;;
71963;SDS011;59834;52.124;5.422;2022-12-07T03:24:54;8.25;;;0.30;;
71963;SDS011;59834;52.124;5.422;2022-12-07T03:27:24;2.80;;;0.17;;
71963;SDS011;59834;52.124;5.422;2022-12-07T03:29:59;6.10;;;0.20;;
71963;SDS011;59834;52.124;5.422;2022-12-07T03:32:36;8.13;;;0.83;;
71963;SDS011;59834;52.124;5.422;2022-12-07T03:35:10;7.03;;;0.63;;
71963;SDS011;59834;52.124;5.422;2022-12-07T03:37:45;1.42;;;0.10;;
71963;SDS011;59834;52.124;5.422;2022-12-07T03:40:33;4.75;;;0.30;;
71963;SDS011;59834;52.124;5.422;2022-12-07T03:43:03;4.45;;;0.20;;
71963;SDS011;59834;52.124;5.422;2022-12-07T03:45:37;5.20;;;0.33;;
71963;SDS011;59834;52.124;5.422;2022-12-07T03:50:49;8.13;;;0.68;;
71963;SDS011;59834;52.124;5.422;2022-12-07T03:53:24;5.13;;;0.20;;
71963;SDS011;59834;52.124;5.422;2022-12-07T03:56:03;2.35;;;0.22;;
71963;SDS011;59834;52.124;5.422;2022-12-07T03:58:32;1.43;;;0.40;;
71963;SDS011;59834;52.124;5.422;2022-12-07T04:01:00;2.05;;;0.30;;
71963;SDS011;59834;52.124;5.422;2022-12-07T04:03:26;6.20;;;0.50;;
71963;SDS011;59834;52.124;5.422;2022-12-07T04:05:53;2.20;;;0.20;;
71963;SDS011;59834;52.124;5.422;2022-12-07T04:08:20;3.13;;;0.28;;
71963;SDS011;59834;52.124;5.422;2022-12-07T04:10:46;9.73;;;1.13;;
71963;SDS011;59834;52.124;5.422;2022-12-07T04:13:13;3.13;;;0.20;;
71963;SDS011;59834;52.124;5.422;2022-12-07T04:15:39;4.15;;;0.50;;
71963;SDS011;59834;52.124;5.422;2022-12-07T04:18:06;3.63;;;0.20;;
71963;SDS011;59834;52.124;5.422;2022-12-07T04:20:32;7.00;;;0.17;;
71963;SDS011;59834;52.124;5.422;2022-12-07T04:22:59;3.03;;;0.20;;
71963;SDS011;59834;52.124;5.422;2022-12-07T04:25:25;2.80;;;0.22;;
71963;SDS011;59834;52.124;5.422;2022-12-07T04:27:52;4.60;;;0.30;;
71963;SDS011;59834;52.124;5.422;2022-12-07T04:30:19;3.88;;;0.30;;
71963;SDS011;59834;52.124;5.422;2022-12-07T04:32:46;1.58;;;0.17;;
71963;SDS011;59834;52.124;5.422;2022-12-07T04:35:13;4.77;;;0.23;;
71963;SDS011;59834;52.124;5.422;2022-12-07T04:37:39;5.78;;;0.50;;
71963;SDS011;59834;52.124;5.422;2022-12-07T04:40:09;2.75;;;0.20;;
71963;SDS011;59834;52.124;5.422;2022-12-07T04:42:37;2.28;;;0.52;;
71963;SDS011;59834;52.124;5.422;2022-12-07T04:45:05;1.83;;;0.55;;
71963;SDS011;59834;52.124;5.422;2022-12-07T04:47:33;3.90;;;0.20;;
71963;SDS011;59834;52.124;5.422;2022-12-07T04:50:00;3.72;;;0.20;;
71963;SDS011;59834;52.124;5.422;2022-12-07T04:52:28;3.00;;;0.20;;
71963;SDS011;59834;52.124;5.422;2022-12-07T04:54:54;3.25;;;0.40;;
71963;SDS011;59834;52.124;5.422;2022-12-07T04:57:21;3.45;;;0.10;;
71963;SDS011;59834;52.124;5.422;2022-12-07T04:59:47;4.60;;;0.20;;
71963;SDS011;59834;52.124;5.422;2022-12-07T05:02:14;0.75;;;0.10;;
71963;SDS011;59834;52.124;5.422;2022-12-07T05:04:40;3.25;;;0.20;;
71963;SDS011;59834;52.124;5.422;2022-12-07T05:07:07;4.07;;;0.20;;
71963;SDS011;59834;52.124;5.422;2022-12-07T05:09:34;1.40;;;0.13;;
71963;SDS011;59834;52.124;5.422;2022-12-07T05:12:00;0.67;;;0.13;;
71963;SDS011;59834;52.124;5.422;2022-12-07T05:14:27;4.07;;;0.13;;
71963;SDS011;59834;52.124;5.422;2022-12-07T05:16:54;2.40;;;0.10;;
71963;SDS011;59834;52.124;5.422;2022-12-07T05:19:21;1.02;;;0.10;;
71963;SDS011;59834;52.124;5.422;2022-12-07T05:21:49;2.40;;;0.10;;
71963;SDS011;59834;52.124;5.422;2022-12-07T05:24:16;4.97;;;0.17;;
71963;SDS011;59834;52.124;5.422;2022-12-07T05:26:43;0.82;;;0.00;;
71963;SDS011;59834;52.124;5.422;2022-12-07T05:29:11;2.05;;;0.10;;
71963;SDS011;59834;52.124;5.422;2022-12-07T05:31:43;2.83;;;0.20;;
71963;SDS011;59834;52.124;5.422;2022-12-07T05:34:10;3.50;;;0.00;;
71963;SDS011;59834;52.124;5.422;2022-12-07T05:36:38;0.63;;;0.00;;
71963;SDS011;59834;52.124;5.422;2022-12-07T05:39:06;5.30;;;0.20;;
71963;SDS011;59834;52.124;5.422;2022-12-07T05:41:33;2.05;;;0.20;;
71963;SDS011;59834;52.124;5.422;2022-12-07T05:44:18;2.15;;;0.47;;
71963;SDS011;59834;52.124;5.422;2022-12-07T05:46:45;2.00;;;0.10;;
71963;SDS011;59834;52.124;5.422;2022-12-07T05:49:11;2.40;;;0.07;;
71963;SDS011;59834;52.124;5.422;2022-12-07T05:51:38;3.63;;;0.10;;
71963;SDS011;59834;52.124;5.422;2022-12-07T05:54:05;2.78;;;0.20;;
71963;SDS011;59834;52.124;5.422;2022-12-07T05:56:31;5.20;;;0.20;;
71963;SDS011;59834;52.124;5.422;2022-12-07T05:58:58;3.40;;;0.20;;
71963;SDS011;59834;52.124;5.422;2022-12-07T06:01:43;1.63;;;0.20;;
71963;SDS011;59834;52.124;5.422;2022-12-07T06:04:10;3.58;;;0.10;;
71963;SDS011;59834;52.124;5.422;2022-12-07T06:06:36;3.28;;;0.20;;
71963;SDS011;59834;52.124;5.422;2022-12-07T06:09:03;1.95;;;0.10;;
71963;SDS011;59834;52.124;5.422;2022-12-07T06:11:29;2.25;;;0.10;;
71963;SDS011;59834;52.124;5.422;2022-12-07T06:14:14;3.60;;;0.17;;
71963;SDS011;59834;52.124;5.422;2022-12-07T06:16:41;1.83;;;0.25;;
71963;SDS011;59834;52.124;5.422;2022-12-07T06:19:07;3.58;;;0.10;;
71963;SDS011;59834;52.124;5.422;2022-12-07T06:21:34;2.55;;;0.10;;
71963;SDS011;59834;52.124;5.422;2022-12-07T06:24:00;1.88;;;0.10;;
71963;SDS011;59834;52.124;5.422;2022-12-07T06:26:28;6.63;;;0.80;;
71963;SDS011;59834;52.124;5.422;2022-12-07T06:28:54;6.15;;;0.20;;
71963;SDS011;59834;52.124;5.422;2022-12-07T06:31:21;3.55;;;0.20;;
71963;SDS011;59834;52.124;5.422;2022-12-07T06:33:48;1.60;;;0.17;;
71963;SDS011;59834;52.124;5.422;2022-12-07T06:36:14;6.78;;;0.30;;
71963;SDS011;59834;52.124;5.422;2022-12-07T06:38:41;2.00;;;0.60;;
71963;SDS011;59834;52.124;5.422;2022-12-07T06:41:07;4.72;;;0.20;;
71963;SDS011;59834;52.124;5.422;2022-12-07T06:43:34;2.88;;;0.47;;
71963;SDS011;59834;52.124;5.422;2022-12-07T06:46:00;5.95;;;0.35;;
71963;SDS011;59834;52.124;5.422;2022-12-07T06:48:27;5.07;;;0.20;;
71963;SDS011;59834;52.124;5.422;2022-12-07T06:50:54;4.63;;;0.47;;
71963;SDS011;59834;52.124;5.422;2022-12-07T06:53:21;4.22;;;0.40;;
71963;SDS011;59834;52.124;5.422;2022-12-07T06:55:48;6.13;;;0.30;;
71963;SDS011;59834;52.124;5.422;2022-12-07T06:58:15;1.10;;;0.10;;
71963;SDS011;59834;52.124;5.422;2022-12-07T07:00:41;5.07;;;0.25;;
71963;SDS011;59834;52.124;5.422;2022-12-07T07:03:09;3.77;;;0.17;;
71963;SDS011;59834;52.124;5.422;2022-12-07T07:05:35;4.85;;;0.25;;
71963;SDS011;59834;52.124;5.422;2022-12-07T07:08:02;4.10;;;0.30;;
71963;SDS011;59834;52.124;5.422;2022-12-07T07:10:47;3.33;;;0.10;;
71963;SDS011;59834;52.124;5.422;2022-12-07T07:13:14;2.30;;;0.30;;
71963;SDS011;59834;52.124;5.422;2022-12-07T07:15:41;11.77;;;0.40;;
71963;SDS011;59834;52.124;5.422;2022-12-07T07:18:07;5.03;;;0.40;;
71963;SDS011;59834;52.124;5.422;2022-12-07T07:20:34;5.53;;;0.30;;
71963;SDS011;59834;52.124;5.422;2022-12-07T07:23:01;5.70;;;0.20;;
71963;SDS011;59834;52.124;5.422;2022-12-07T07:25:28;5.15;;;0.40;;
71963;SDS011;59834;52.124;5.422;2022-12-07T07:27:54;3.00;;;0.43;;
71963;SDS011;59834;52.124;5.422;2022-12-07T07:30:21;3.53;;;0.20;;
71963;SDS011;59834;52.124;5.422;2022-12-07T07:32:48;2.53;;;0.30;;
71963;SDS011;59834;52.124;5.422;2022-12-07T07:35:15;3.60;;;0.32;;
71963;SDS011;59834;52.124;5.422;2022-12-07T07:37:42;3.80;;;0.20;;
71963;SDS011;59834;52.124;5.422;2022-12-07T07:40:26;2.17;;;0.20;;
71963;SDS011;59834;52.124;5.422;2022-12-07T07:43:01;5.75;;;0.45;;
71963;SDS011;59834;52.124;5.422;2022-12-07T07:45:27;2.08;;;0.20;;
71963;SDS011;59834;52.124;5.422;2022-12-07T07:47:54;6.45;;;0.45;;
71963;SDS011;59834;52.124;5.422;2022-12-07T07:50:21;2.55;;;0.45;;
71963;SDS011;59834;52.124;5.422;2022-12-07T07:52:48;4.57;;;0.53;;
71963;SDS011;59834;52.124;5.422;2022-12-07T07:55:15;3.22;;;0.30;;
71963;SDS011;59834;52.124;5.422;2022-12-07T07:57:42;7.13;;;0.75;;
71963;SDS011;59834;52.124;5.422;2022-12-07T08:00:15;5.45;;;0.47;;
71963;SDS011;59834;52.124;5.422;2022-12-07T08:02:43;5.15;;;0.30;;
71963;SDS011;59834;52.124;5.422;2022-12-07T08:05:10;3.23;;;0.30;;
71963;SDS011;59834;52.124;5.422;2022-12-07T08:07:38;7.38;;;0.22;;
71963;SDS011;59834;52.124;5.422;2022-12-07T08:10:05;6.63;;;0.85;;
71963;SDS011;59834;52.124;5.422;2022-12-07T08:12:35;2.42;;;0.32;;
71963;SDS011;59834;52.124;5.422;2022-12-07T08:15:03;5.45;;;0.43;;
71963;SDS011;59834;52.124;5.422;2022-12-07T08:17:30;5.33;;;0.30;;
71963;SDS011;59834;52.124;5.422;2022-12-07T08:19:56;3.83;;;0.30;;
71963;SDS011;59834;52.124;5.422;2022-12-07T08:22:22;5.45;;;0.50;;
71963;SDS011;59834;52.124;5.422;2022-12-07T08:24:49;6.35;;;0.30;;
71963;SDS011;59834;52.124;5.422;2022-12-07T08:27:15;3.80;;;0.50;;
71963;SDS011;59834;52.124;5.422;2022-12-07T08:29:42;5.20;;;0.30;;
71963;SDS011;59834;52.124;5.422;2022-12-07T08:32:09;8.50;;;0.22;;
71963;SDS011;59834;52.124;5.422;2022-12-07T08:34:35;2.22;;;0.17;;
71963;SDS011;59834;52.124;5.422;2022-12-07T08:37:03;2.35;;;0.10;;
71963;SDS011;59834;52.124;5.422;2022-12-07T08:39:29;2.45;;;0.45;;
71963;SDS011;59834;52.124;5.422;2022-12-07T08:41:57;4.30;;;0.17;;
71963;SDS011;59834;52.124;5.422;2022-12-07T08:44:24;3.20;;;0.22;;
71963;SDS011;59834;52.124;5.422;2022-12-07T08:46:52;3.70;;;0.30;;
71963;SDS011;59834;52.124;5.422;2022-12-07T08:49:24;2.33;;;0.30;;
71963;SDS011;59834;52.124;5.422;2022-12-07T08:51:54;7.63;;;0.30;;
71963;SDS011;59834;52.124;5.422;2022-12-07T08:54:21;3.57;;;0.43;;
71963;SDS011;59834;52.124;5.422;2022-12-07T08:56:48;5.03;;;0.60;;
71963;SDS011;59834;52.124;5.422;2022-12-07T08:59:24;3.25;;;0.20;;
71963;SDS011;59834;52.124;5.422;2022-12-07T09:01:51;5.05;;;0.68;;
71963;SDS011;59834;52.124;5.422;2022-12-07T09:04:18;4.00;;;0.82;;
71963;SDS011;59834;52.124;5.422;2022-12-07T09:06:44;5.90;;;1.00;;
71963;SDS011;59834;52.124;5.422;2022-12-07T09:09:13;7.85;;;0.68;;
71963;SDS011;59834;52.124;5.422;2022-12-07T09:11:40;2.20;;;0.30;;
71963;SDS011;59834;52.124;5.422;2022-12-07T09:14:07;3.58;;;0.50;;
71963;SDS011;59834;52.124;5.422;2022-12-07T09:16:33;4.47;;;0.50;;
71963;SDS011;59834;52.124;5.422;2022-12-07T09:19:00;6.10;;;0.30;;
71963;SDS011;59834;52.124;5.422;2022-12-07T09:21:26;4.80;;;0.20;;
71963;SDS011;59834;52.124;5.422;2022-12-07T09:23:53;3.72;;;0.30;;
71963;SDS011;59834;52.124;5.422;2022-12-07T09:26:20;2.45;;;0.20;;
71963;SDS011;59834;52.124;5.422;2022-12-07T09:28:46;1.63;;;0.20;;
71963;SDS011;59834;52.124;5.422;2022-12-07T09:31:12;4.70;;;0.17;;
71963;SDS011;59834;52.124;5.422;2022-12-07T09:33:53;2.90;;;0.20;;
71963;SDS011;59834;52.124;5.422;2022-12-07T09:36:24;5.28;;;0.20;;
71963;SDS011;59834;52.124;5.422;2022-12-07T09:38:51;1.30;;;0.20;;
71963;SDS011;59834;52.124;5.422;2022-12-07T09:41:18;2.90;;;0.38;;
71963;SDS011;59834;52.124;5.422;2022-12-07T09:43:45;3.53;;;0.40;;
71963;SDS011;59834;52.124;5.422;2022-12-07T09:46:13;2.42;;;0.20;;
71963;SDS011;59834;52.124;5.422;2022-12-07T09:48:43;2.35;;;0.20;;
71963;SDS011;59834;52.124;5.422;2022-12-07T09:51:20;1.73;;;0.40;;
71963;SDS011;59834;52.124;5.422;2022-12-07T09:53:54;5.00;;;0.10;;
71963;SDS011;59834;52.124;5.422;2022-12-07T09:56:24;4.20;;;0.20;;
71963;SDS011;59834;52.124;5.422;2022-12-07T09:58:53;3.92;;;0.38;;
71963;SDS011;59834;52.124;5.422;2022-12-07T10:01:28;3.08;;;0.13;;
71963;SDS011;59834;52.124;5.422;2022-12-07T10:04:02;2.47;;;0.20;;
71963;SDS011;59834;52.124;5.422;2022-12-07T10:06:40;3.28;;;0.20;;
71963;SDS011;59834;52.124;5.422;2022-12-07T10:09:11;5.80;;;0.40;;
71963;SDS011;59834;52.124;5.422;2022-12-07T10:14:31;1.50;;;0.10;;
71963;SDS011;59834;52.124;5.422;2022-12-07T10:17:30;3.78;;;0.20;;
71963;SDS011;59834;52.124;5.422;2022-12-07T10:25:30;4.22;;;0.60;;
71963;SDS011;59834;52.124;5.422;2022-12-07T10:28:00;2.22;;;0.10;;
71963;SDS011;59834;52.124;5.422;2022-12-07T10:36:21;1.07;;;0.30;;
71963;SDS011;59834;52.124;5.422;2022-12-07T10:39:01;2.83;;;0.10;;
71963;SDS011;59834;52.124;5.422;2022-12-07T10:41:30;3.40;;;0.13;;
71963;SDS011;59834;52.124;5.422;2022-12-07T10:43:57;2.70;;;0.20;;
71963;SDS011;59834;52.124;5.422;2022-12-07T10:46:31;3.70;;;0.63;;
71963;SDS011;59834;52.124;5.422;2022-12-07T10:54:34;4.82;;;0.35;;
71963;SDS011;59834;52.124;5.422;2022-12-07T10:57:41;2.15;;;0.20;;
71963;SDS011;59834;52.124;5.422;2022-12-07T11:11:09;2.50;;;0.20;;
71963;SDS011;59834;52.124;5.422;2022-12-07T11:16:18;2.40;;;0.10;;
71963;SDS011;59834;52.124;5.422;2022-12-07T11:24:56;5.45;;;0.20;;
71963;SDS011;59834;52.124;5.422;2022-12-07T11:30:32;1.37;;;0.10;;
71963;SDS011;59834;52.124;5.422;2022-12-07T11:33:08;3.47;;;0.20;;
71963;SDS011;59834;52.124;5.422;2022-12-07T11:35:45;3.45;;;0.45;;
71963;SDS011;59834;52.124;5.422;2022-12-07T11:38:42;5.78;;;0.20;;
71963;SDS011;59834;52.124;5.422;2022-12-07T11:41:22;4.38;;;0.10;;
71963;SDS011;59834;52.124;5.422;2022-12-07T11:44:01;1.93;;;0.10;;
71963;SDS011;59834;52.124;5.422;2022-12-07T11:46:36;6.28;;;0.20;;
71963;SDS011;59834;52.124;5.422;2022-12-07T11:52:06;4.75;;;0.20;;
71963;SDS011;59834;52.124;5.422;2022-12-07T11:54:43;1.58;;;0.10;;
71963;SDS011;59834;52.124;5.422;2022-12-07T11:57:14;4.40;;;0.27;;
71963;SDS011;59834;52.124;5.422;2022-12-07T11:59:48;6.55;;;0.73;;
71963;SDS011;59834;52.124;5.422;2022-12-07T12:02:23;4.55;;;0.20;;
71963;SDS011;59834;52.124;5.422;2022-12-07T12:05:21;9.10;;;0.40;;
71963;SDS011;59834;52.124;5.422;2022-12-07T12:07:51;6.30;;;0.10;;
71963;SDS011;59834;52.124;5.422;2022-12-07T12:10:58;1.20;;;0.10;;
71963;SDS011;59834;52.124;5.422;2022-12-07T12:17:07;0.70;;;0.10;;
71963;SDS011;59834;52.124;5.422;2022-12-07T12:20:26;3.55;;;0.20;;
71963;SDS011;59834;52.124;5.422;2022-12-07T12:22:41;3.55;;;0.13;;
71963;SDS011;59834;52.124;5.422;2022-12-07T12:25:19;1.50;;;0.10;;
71963;SDS011;59834;52.124;5.422;2022-12-07T12:27:48;9.48;;;0.20;;
71963;SDS011;59834;52.124;5.422;2022-12-07T12:30:29;3.47;;;0.20;;
71963;SDS011;59834;52.124;5.422;2022-12-07T12:33:17;5.78;;;0.10;;
71963;SDS011;59834;52.124;5.422;2022-12-07T12:38:48;4.20;;;0.10;;
71963;SDS011;59834;52.124;5.422;2022-12-07T12:41:58;5.68;;;0.10;;
71963;SDS011;59834;52.124;5.422;2022-12-07T12:54:31;7.72;;;0.82;;
71963;SDS011;59834;52.124;5.422;2022-12-07T13:02:21;4.75;;;0.13;;
71963;SDS011;59834;52.124;5.422;2022-12-07T13:15:38;1.48;;;0.00;;
71963;SDS011;59834;52.124;5.422;2022-12-07T13:20:54;1.27;;;0.15;;
71963;SDS011;59834;52.124;5.422;2022-12-07T13:23:37;3.85;;;0.05;;
71963;SDS011;59834;52.124;5.422;2022-12-07T13:34:30;3.13;;;0.10;;
71963;SDS011;59834;52.124;5.422;2022-12-07T13:37:00;1.58;;;0.10;;
71963;SDS011;59834;52.124;5.422;2022-12-07T13:39:28;1.98;;;0.10;;
71963;SDS011;59834;52.124;5.422;2022-12-07T13:41:56;1.88;;;0.40;;
71963;SDS011;59834;52.124;5.422;2022-12-07T13:50:23;1.75;;;0.30;;
71963;SDS011;59834;52.124;5.422;2022-12-07T13:52:55;2.45;;;0.30;;
71963;SDS011;59834;52.124;5.422;2022-12-07T13:55:23;3.38;;;0.20;;
71963;SDS011;59834;52.124;5.422;2022-12-07T13:57:50;1.17;;;0.20;;
71963;SDS011;59834;52.124;5.422;2022-12-07T14:00:19;2.80;;;0.40;;
71963;SDS011;59834;52.124;5.422;2022-12-07T14:02:58;3.15;;;0.10;;
71963;SDS011;59834;52.124;5.422;2022-12-07T14:05:28;3.03;;;0.20;;
71963;SDS011;59834;52.124;5.422;2022-12-07T14:10:34;0.63;;;0.10;;
71963;SDS011;59834;52.124;5.422;2022-12-07T14:13:03;3.78;;;0.30;;
71963;SDS011;59834;52.124;5.422;2022-12-07T14:15:50;2.33;;;0.32;;
71963;SDS011;59834;52.124;5.422;2022-12-07T14:18:24;3.10;;;0.55;;
71963;SDS011;59834;52.124;5.422;2022-12-07T14:23:43;3.13;;;0.30;;
71963;SDS011;59834;52.124;5.422;2022-12-07T14:26:12;2.45;;;0.20;;
71963;SDS011;59834;52.124;5.422;2022-12-07T14:28:41;2.50;;;0.28;;
71963;SDS011;59834;52.124;5.422;2022-12-07T14:31:16;4.32;;;0.30;;
71963;SDS011;59834;52.124;5.422;2022-12-07T14:33:58;2.25;;;0.40;;
71963;SDS011;59834;52.124;5.422;2022-12-07T14:36:28;1.87;;;0.30;;
71963;SDS011;59834;52.124;5.422;2022-12-07T14:39:04;4.05;;;0.20;;
71963;SDS011;59834;52.124;5.422;2022-12-07T14:41:38;4.90;;;0.28;;
71963;SDS011;59834;52.124;5.422;2022-12-07T14:44:21;4.22;;;0.22;;
71963;SDS011;59834;52.124;5.422;2022-12-07T14:47:00;5.97;;;0.20;;
71963;SDS011;59834;52.124;5.422;2022-12-07T14:49:51;4.77;;;0.30;;
71963;SDS011;59834;52.124;5.422;2022-12-07T14:52:31;2.42;;;0.20;;
71963;SDS011;59834;52.124;5.422;2022-12-07T14:55:20;1.13;;;0.10;;
71963;SDS011;59834;52.124;5.422;2022-12-07T15:00:45;2.45;;;0.10;;
71963;SDS011;59834;52.124;5.422;2022-12-07T15:03:13;1.70;;;0.40;;
71963;SDS011;59834;52.124;5.422;2022-12-07T15:05:40;0.90;;;0.10;;
71963;SDS011;59834;52.124;5.422;2022-12-07T15:08:13;3.30;;;0.10;;
71963;SDS011;59834;52.124;5.422;2022-12-07T15:10:40;5.43;;;0.20;;
71963;SDS011;59834;52.124;5.422;2022-12-07T15:13:07;3.67;;;0.20;;
71963;SDS011;59834;52.124;5.422;2022-12-07T15:15:56;3.00;;;0.60;;
71963;SDS011;59834;52.124;5.422;2022-12-07T15:18:23;2.90;;;0.40;;
71963;SDS011;59834;52.124;5.422;2022-12-07T15:20:50;2.60;;;0.32;;
71963;SDS011;59834;52.124;5.422;2022-12-07T15:23:17;2.95;;;0.10;;
71963;SDS011;59834;52.124;5.422;2022-12-07T15:25:46;0.57;;;0.10;;
71963;SDS011;59834;52.124;5.422;2022-12-07T15:28:14;1.47;;;0.10;;
71963;SDS011;59834;52.124;5.422;2022-12-07T15:30:41;4.90;;;0.45;;
71963;SDS011;59834;52.124;5.422;2022-12-07T15:33:12;4.07;;;0.20;;
71963;SDS011;59834;52.124;5.422;2022-12-07T15:35:41;2.33;;;0.10;;
71963;SDS011;59834;52.124;5.422;2022-12-07T15:38:12;2.33;;;0.40;;
71963;SDS011;59834;52.124;5.422;2022-12-07T15:40:39;1.90;;;0.27;;
71963;SDS011;59834;52.124;5.422;2022-12-07T15:43:07;2.65;;;0.30;;
71963;SDS011;59834;52.124;5.422;2022-12-07T15:45:55;1.63;;;0.20;;
71963;SDS011;59834;52.124;5.422;2022-12-07T15:48:23;1.45;;;0.20;;
71963;SDS011;59834;52.124;5.422;2022-12-07T15:51:05;1.50;;;0.20;;
71963;SDS011;59834;52.124;5.422;2022-12-07T15:53:49;3.37;;;0.10;;
71963;SDS011;59834;52.124;5.422;2022-12-07T15:56:16;5.45;;;0.25;;
71963;SDS011;59834;52.124;5.422;2022-12-07T15:58:43;3.58;;;0.20;;
71963;SDS011;59834;52.124;5.422;2022-12-07T16:01:14;1.70;;;0.50;;
71963;SDS011;59834;52.124;5.422;2022-12-07T16:03:43;6.43;;;0.20;;
71963;SDS011;59834;52.124;5.422;2022-12-07T16:06:22;2.60;;;0.30;;
71963;SDS011;59834;52.124;5.422;2022-12-07T16:08:48;5.35;;;0.68;;
71963;SDS011;59834;52.124;5.422;2022-12-07T16:11:15;3.20;;;0.43;;
71963;SDS011;59834;52.124;5.422;2022-12-07T16:13:42;4.53;;;0.30;;
71963;SDS011;59834;52.124;5.422;2022-12-07T16:16:16;1.80;;;0.30;;
71963;SDS011;59834;52.124;5.422;2022-12-07T16:21:41;2.40;;;0.55;;
71963;SDS011;59834;52.124;5.422;2022-12-07T16:24:10;3.58;;;0.88;;
71963;SDS011;59834;52.124;5.422;2022-12-07T16:26:39;7.35;;;0.65;;
71963;SDS011;59834;52.124;5.422;2022-12-07T16:29:13;3.38;;;0.52;;
71963;SDS011;59834;52.124;5.422;2022-12-07T16:31:40;2.33;;;0.77;;
71963;SDS011;59834;52.124;5.422;2022-12-07T16:34:08;1.50;;;0.40;;
71963;SDS011;59834;52.124;5.422;2022-12-07T16:36:36;2.20;;;0.43;;
71963;SDS011;59834;52.124;5.422;2022-12-07T16:39:22;3.65;;;0.52;;
71963;SDS011;59834;52.124;5.422;2022-12-07T16:41:50;5.25;;;0.60;;
71963;SDS011;59834;52.124;5.422;2022-12-07T16:44:19;9.13;;;1.53;;
71963;SDS011;59834;52.124;5.422;2022-12-07T16:46:45;4.45;;;0.63;;
71963;SDS011;59834;52.124;5.422;2022-12-07T16:49:13;6.40;;;0.90;;
71963;SDS011;59834;52.124;5.422;2022-12-07T16:51:41;5.80;;;1.05;;
71963;SDS011;59834;52.124;5.422;2022-12-07T16:54:20;2.60;;;0.63;;
71963;SDS011;59834;52.124;5.422;2022-12-07T16:56:50;3.60;;;0.60;;
71963;SDS011;59834;52.124;5.422;2022-12-07T16:59:21;4.32;;;0.63;;
71963;SDS011;59834;52.124;5.422;2022-12-07T17:01:57;7.07;;;0.50;;
71963;SDS011;59834;52.124;5.422;2022-12-07T17:04:24;4.03;;;0.50;;
71963;SDS011;59834;52.124;5.422;2022-12-07T17:07:08;6.35;;;0.60;;
71963;SDS011;59834;52.124;5.422;2022-12-07T17:09:36;6.07;;;0.90;;
71963;SDS011;59834;52.124;5.422;2022-12-07T17:18:32;6.80;;;0.60;;
71963;SDS011;59834;52.124;5.422;2022-12-07T17:30:16;3.15;;;0.40;;
71963;SDS011;59834;52.124;5.422;2022-12-07T17:36:19;3.13;;;0.30;;
71963;SDS011;59834;52.124;5.422;2022-12-07T17:45:41;4.25;;;1.48;;
71963;SDS011;59834;52.124;5.422;2022-12-07T17:48:15;3.80;;;1.23;;
71963;SDS011;59834;52.124;5.422;2022-12-07T17:51:41;6.45;;;1.50;;
71963;SDS011;59834;52.124;5.422;2022-12-07T18:13:45;6.37;;;0.50;;
71963;SDS011;59834;52.124;5.422;2022-12-07T18:16:12;7.68;;;0.70;;
71963;SDS011;59834;52.124;5.422;2022-12-07T18:18:44;3.97;;;0.70;;
71963;SDS011;59834;52.124;5.422;2022-12-07T18:21:21;4.15;;;1.15;;
71963;SDS011;59834;52.124;5.422;2022-12-07T18:23:49;5.80;;;1.08;;
71963;SDS011;59834;52.124;5.422;2022-12-07T18:26:20;5.50;;;1.27;;
71963;SDS011;59834;52.124;5.422;2022-12-07T18:28:48;6.90;;;1.20;;
71963;SDS011;59834;52.124;5.422;2022-12-07T18:31:15;5.47;;;0.73;;
71963;SDS011;59834;52.124;5.422;2022-12-07T18:33:42;3.50;;;1.10;;
71963;SDS011;59834;52.124;5.422;2022-12-07T18:36:10;8.45;;;1.05;;
71963;SDS011;59834;52.124;5.422;2022-12-07T18:38:37;3.60;;;1.17;;
71963;SDS011;59834;52.124;5.422;2022-12-07T18:41:09;3.47;;;1.05;;
71963;SDS011;59834;52.124;5.422;2022-12-07T18:43:38;6.03;;;1.10;;
71963;SDS011;59834;52.124;5.422;2022-12-07T18:46:12;8.93;;;0.98;;
71963;SDS011;59834;52.124;5.422;2022-12-07T18:48:40;2.50;;;1.02;;
71963;SDS011;59834;52.124;5.422;2022-12-07T18:51:08;5.33;;;0.80;;
71963;SDS011;59834;52.124;5.422;2022-12-07T18:53:36;4.47;;;0.90;;
71963;SDS011;59834;52.124;5.422;2022-12-07T18:56:04;4.25;;;1.35;;
71963;SDS011;59834;52.124;5.422;2022-12-07T18:58:36;4.70;;;1.00;;
71963;SDS011;59834;52.124;5.422;2022-12-07T19:01:03;7.25;;;1.13;;
71963;SDS011;59834;52.124;5.422;2022-12-07T19:03:30;4.67;;;1.03;;
71963;SDS011;59834;52.124;5.422;2022-12-07T19:06:04;4.47;;;1.10;;
71963;SDS011;59834;52.124;5.422;2022-12-07T19:08:31;2.95;;;0.90;;
71963;SDS011;59834;52.124;5.422;2022-12-07T19:11:00;4.60;;;1.15;;
71963;SDS011;59834;52.124;5.422;2022-12-07T19:13:49;2.38;;;0.60;;
71963;SDS011;59834;52.124;5.422;2022-12-07T19:16:16;4.40;;;1.33;;
71963;SDS011;59834;52.124;5.422;2022-12-07T19:18:43;8.15;;;1.42;;
71963;SDS011;59834;52.124;5.422;2022-12-07T19:21:16;2.00;;;0.70;;
71963;SDS011;59834;52.124;5.422;2022-12-07T19:23:43;6.32;;;1.35;;
71963;SDS011;59834;52.124;5.422;2022-12-07T19:26:10;5.55;;;1.50;;
71963;SDS011;59834;52.124;5.422;2022-12-07T19:28:37;4.67;;;1.43;;